createdAt,value
2023-02-24T00:02:20.465Z,45.40
2023-02-24T00:04:52.038Z,38.50
2023-02-24T00:07:20.560Z,38.45
2023-02-24T00:09:49.182Z,44.42
2023-02-24T00:12:20.777Z,42.75
2023-02-24T00:14:49.013Z,39.67
2023-02-24T00:17:17.410Z,41.83
2023-02-24T00:19:46.848Z,42.83
2023-02-24T00:22:14.743Z,32.15
2023-02-24T00:24:43.107Z,37.75
2023-02-24T00:27:13.041Z,46.65
2023-02-24T00:29:42.258Z,64.43
2023-02-24T00:32:13.518Z,66.00
2023-02-24T00:34:43.464Z,66.28
2023-02-24T00:37:12.375Z,61.33
2023-02-24T00:39:42.021Z,76.53
2023-02-24T00:42:12.378Z,61.80
2023-02-24T00:44:45.868Z,81.03
2023-02-24T00:47:17.307Z,78.23
2023-02-24T00:49:48.545Z,73.82
2023-02-24T00:52:22.785Z,72.40
2023-02-24T00:54:51.261Z,67.27
2023-02-24T00:57:21.642Z,59.17
2023-02-24T00:59:53.940Z,58.55
2023-02-24T01:02:22.021Z,53.35
2023-02-24T01:04:53.217Z,53.58
2023-02-24T01:07:22.340Z,55.53
2023-02-24T01:09:50.635Z,56.08
2023-02-24T01:12:23.867Z,47.35
2023-02-24T01:14:53.517Z,43.45
2023-02-24T01:17:22.210Z,48.70
2023-02-24T01:19:50.696Z,49.10
2023-02-24T01:22:20.393Z,46.22
2023-02-24T01:24:48.937Z,47.00
2023-02-24T01:27:20.291Z,51.33
2023-02-24T01:29:50.660Z,48.13
2023-02-24T01:32:21.904Z,50.22
2023-02-24T01:34:55.567Z,60.03
2023-02-24T01:37:25.664Z,71.88
2023-02-24T01:39:53.648Z,52.72
2023-02-24T01:42:23.638Z,65.10
2023-02-24T01:44:54.227Z,65.03
2023-02-24T01:47:22.663Z,59.60
2023-02-24T01:49:53.090Z,47.03
2023-02-24T01:52:24.453Z,41.38
2023-02-24T01:54:58.702Z,35.85
2023-02-24T01:57:29.815Z,42.73
2023-02-24T02:00:02.477Z,30.27
2023-02-24T02:02:30.792Z,30.48
2023-02-24T02:05:04.049Z,31.85
2023-02-24T02:07:41.438Z,29.10
2023-02-24T02:10:10.095Z,32.55
2023-02-24T02:12:44.633Z,32.83
2023-02-24T02:15:17.144Z,30.23
2023-02-24T02:18:00.205Z,33.25
2023-02-24T02:20:53.970Z,32.67
2023-02-24T02:24:26.624Z,29.27
2023-02-24T02:27:11.726Z,34.05
2023-02-24T02:30:17.452Z,33.20
2023-02-24T02:33:42.760Z,35.50
2023-02-24T02:36:19.622Z,31.45
2023-02-24T02:38:57.624Z,29.35
2023-02-24T02:41:42.590Z,34.33
2023-02-24T02:44:39.892Z,32.88
2023-02-24T02:47:26.240Z,29.70
2023-02-24T02:50:18.755Z,31.83
2023-02-24T02:53:12.421Z,29.13
2023-02-24T02:55:52.051Z,27.95
2023-02-24T02:58:26.404Z,29.08
2023-02-24T03:01:03.177Z,27.25
2023-02-24T03:03:40.612Z,27.13
2023-02-24T03:06:22.527Z,32.28
2023-02-24T03:09:00.856Z,24.88
2023-02-24T03:11:31.155Z,27.05
2023-02-24T03:14:03.058Z,27.08
2023-02-24T03:16:31.989Z,24.02
2023-02-24T03:19:04.015Z,25.92
2023-02-24T03:21:42.596Z,34.28
2023-02-24T03:24:12.596Z,27.52
2023-02-24T03:26:42.420Z,26.67
2023-02-24T03:29:19.130Z,28.33
2023-02-24T03:32:02.719Z,25.30
2023-02-24T03:34:55.510Z,29.02
2023-02-24T03:37:28.166Z,30.92
2023-02-24T03:39:59.393Z,26.23
2023-02-24T03:42:30.880Z,29.70
2023-02-24T03:44:59.430Z,24.95
2023-02-24T03:47:27.727Z,29.42
2023-02-24T03:49:56.046Z,25.58
2023-02-24T03:52:49.290Z,22.85
2023-02-24T03:55:38.047Z,25.75
2023-02-24T03:58:21.245Z,29.30
2023-02-24T04:01:26.506Z,31.65
2023-02-24T04:04:09.578Z,27.55
2023-02-24T04:07:00.734Z,31.30
2023-02-24T04:09:33.433Z,24.83
2023-02-24T04:12:31.632Z,29.52
2023-02-24T04:15:09.276Z,29.55
2023-02-24T04:17:52.760Z,32.45
2023-02-24T04:20:23.111Z,32.53
2023-02-24T04:23:08.789Z,30.13
2023-02-24T04:25:38.202Z,30.98
2023-02-24T04:28:08.352Z,26.50
2023-02-24T04:30:43.666Z,29.92
2023-02-24T04:33:53.615Z,22.25
2023-02-24T04:36:30.240Z,28.27
2023-02-24T04:38:58.242Z,28.23
2023-02-24T04:41:30.408Z,22.65
2023-02-24T04:43:59.723Z,25.13
2023-02-24T04:46:28.339Z,27.98
2023-02-24T04:48:57.342Z,24.40
2023-02-24T04:51:28.862Z,26.15
2023-02-24T04:53:57.471Z,25.88
2023-02-24T04:56:26.412Z,35.47
2023-02-24T04:58:55.519Z,27.73
2023-02-24T05:01:24.042Z,34.47
2023-02-24T05:03:52.033Z,21.63
2023-02-24T05:06:21.518Z,27.00
2023-02-24T05:08:52.589Z,26.13
2023-02-24T05:11:20.884Z,27.90
2023-02-24T05:13:48.983Z,29.98
2023-02-24T05:16:20.535Z,25.25
2023-02-24T05:18:49.972Z,32.75
2023-02-24T05:21:36.132Z,25.70
2023-02-24T05:24:08.493Z,24.75
2023-02-24T05:26:44.169Z,29.98
2023-02-24T05:29:15.292Z,30.00
2023-02-24T05:31:45.902Z,28.35
2023-02-24T05:34:17.521Z,47.05
2023-02-24T05:36:47.216Z,52.75
2023-02-24T05:39:19.652Z,47.65
2023-02-24T05:41:50.212Z,50.08
2023-02-24T05:44:24.209Z,45.20
2023-02-24T05:47:00.851Z,45.72
2023-02-24T05:49:34.026Z,36.42
2023-02-24T05:52:08.046Z,33.55
2023-02-24T05:54:39.114Z,30.75
2023-02-24T05:57:12.479Z,37.90
2023-02-24T05:59:41.381Z,38.05
2023-02-24T06:02:15.656Z,41.65
2023-02-24T06:04:51.500Z,37.60
2023-02-24T06:07:29.512Z,38.45
2023-02-24T06:09:58.963Z,42.05
2023-02-24T06:12:34.166Z,41.50
2023-02-24T06:15:08.026Z,31.42
2023-02-24T06:17:37.581Z,38.28
2023-02-24T06:20:15.350Z,43.42
2023-02-24T06:22:47.112Z,35.15
2023-02-24T06:25:18.694Z,37.90
2023-02-24T06:27:53.297Z,31.95
2023-02-24T06:30:23.112Z,28.27
2023-02-24T06:32:54.519Z,41.47
2023-02-24T06:35:24.550Z,30.52
2023-02-24T06:37:57.707Z,32.75
2023-02-24T06:40:26.377Z,33.45
2023-02-24T06:42:54.574Z,28.23
2023-02-24T06:45:24.318Z,39.28
2023-02-24T06:47:54.248Z,41.33
2023-02-24T06:50:23.777Z,34.47
2023-02-24T06:52:57.370Z,23.48
2023-02-24T06:55:28.660Z,33.88
2023-02-24T06:57:59.678Z,39.05
2023-02-24T07:00:39.048Z,29.42
2023-02-24T07:03:15.256Z,30.70
2023-02-24T07:05:54.567Z,29.00
2023-02-24T07:08:24.118Z,26.05
2023-02-24T07:10:57.620Z,26.00
2023-02-24T07:13:31.074Z,29.15
2023-02-24T07:16:07.432Z,30.15
2023-02-24T07:18:40.801Z,27.23
2023-02-24T07:21:11.703Z,29.33
2023-02-24T07:23:40.991Z,24.92
2023-02-24T07:26:14.000Z,25.60
2023-02-24T07:28:43.955Z,36.03
2023-02-24T07:31:15.342Z,30.33
2023-02-24T07:33:45.447Z,28.13
2023-02-24T07:36:16.220Z,32.33
2023-02-24T07:38:45.573Z,28.63
2023-02-24T07:41:15.562Z,22.83
2023-02-24T07:43:44.314Z,26.65
2023-02-24T07:46:14.164Z,28.65
2023-02-24T07:48:43.804Z,23.48
2023-02-24T07:51:19.642Z,31.80
2023-02-24T07:53:52.290Z,21.63
2023-02-24T07:56:27.281Z,20.35
2023-02-24T07:59:00.192Z,29.10
2023-02-24T08:01:30.791Z,25.38
2023-02-24T08:04:01.538Z,29.95
2023-02-24T08:06:46.090Z,19.92
2023-02-24T08:09:37.290Z,21.92
2023-02-24T08:12:08.392Z,21.20
2023-02-24T08:14:44.741Z,24.08
2023-02-24T08:17:16.783Z,27.38
2023-02-24T08:19:50.887Z,24.38
2023-02-24T08:22:25.698Z,25.42
2023-02-24T08:25:06.133Z,22.35
2023-02-24T08:27:40.524Z,19.73
2023-02-24T08:30:21.424Z,29.55
2023-02-24T08:33:02.789Z,47.75
2023-02-24T08:35:36.405Z,26.80
2023-02-24T08:38:14.813Z,33.33
2023-02-24T08:40:54.528Z,17.83
2023-02-24T08:43:33.241Z,20.88
2023-02-24T08:46:13.621Z,26.50
2023-02-24T08:48:55.700Z,26.80
2023-02-24T08:51:47.751Z,24.08
2023-02-24T08:54:27.665Z,20.50
2023-02-24T08:56:56.666Z,20.73
2023-02-24T08:59:38.721Z,41.47
2023-02-24T09:02:23.856Z,38.88
2023-02-24T09:04:57.724Z,33.22
2023-02-24T09:07:29.227Z,40.63
2023-02-24T09:10:00.991Z,35.10
2023-02-24T09:12:29.645Z,27.67
2023-02-24T09:15:04.785Z,29.40
2023-02-24T09:17:40.588Z,19.48
2023-02-24T09:20:43.693Z,25.83
2023-02-24T09:23:20.450Z,28.90
2023-02-24T09:25:54.543Z,31.35
2023-02-24T09:28:26.927Z,26.83
2023-02-24T09:31:00.180Z,19.77
2023-02-24T09:33:52.023Z,18.02
2023-02-24T09:36:30.347Z,16.80
2023-02-24T09:39:00.032Z,15.02
2023-02-24T09:42:18.188Z,15.45
2023-02-24T09:44:56.289Z,25.38
2023-02-24T09:47:40.093Z,26.38
2023-02-24T09:50:46.816Z,26.20
2023-02-24T09:53:20.141Z,20.73
2023-02-24T09:56:00.666Z,23.23
2023-02-24T09:59:10.466Z,15.50
2023-02-24T10:02:03.038Z,18.83
2023-02-24T10:05:07.363Z,17.52
2023-02-24T10:07:41.345Z,15.57
2023-02-24T10:10:28.439Z,19.63
2023-02-24T10:13:30.717Z,22.88
2023-02-24T10:16:07.240Z,19.27
2023-02-24T10:18:49.584Z,14.50
2023-02-24T10:21:49.941Z,19.70
2023-02-24T10:24:47.599Z,21.13
2023-02-24T10:27:26.523Z,23.30
2023-02-24T10:30:01.698Z,16.55
2023-02-24T10:32:38.578Z,19.33
2023-02-24T10:35:16.833Z,17.80
2023-02-24T10:37:50.995Z,21.08
2023-02-24T10:40:44.434Z,23.02
2023-02-24T10:43:21.637Z,20.95
2023-02-24T10:45:57.664Z,29.00
2023-02-24T10:48:41.457Z,27.58
2023-02-24T10:51:20.418Z,24.25
2023-02-24T10:54:10.414Z,17.70
2023-02-24T10:56:45.097Z,16.38
2023-02-24T10:59:40.992Z,17.33
2023-02-24T11:02:32.812Z,23.00
2023-02-24T11:05:29.737Z,14.27
2023-02-24T11:08:44.330Z,14.65
2023-02-24T11:11:51.801Z,11.50
2023-02-24T11:14:39.211Z,16.17
2023-02-24T11:17:23.537Z,15.15
2023-02-24T11:19:58.172Z,15.68
2023-02-24T11:22:34.937Z,20.80
2023-02-24T11:25:16.282Z,17.08
2023-02-24T11:27:45.357Z,15.35
2023-02-24T11:30:19.615Z,16.45
2023-02-24T11:32:57.552Z,18.23
2023-02-24T11:35:39.668Z,21.65
2023-02-24T11:38:35.019Z,16.77
2023-02-24T11:41:27.448Z,18.50
2023-02-24T11:44:06.513Z,17.60
2023-02-24T11:46:40.661Z,14.00
2023-02-24T11:50:06.580Z,13.70
2023-02-24T11:52:38.165Z,17.77
2023-02-24T11:55:19.874Z,15.68
2023-02-24T11:57:50.672Z,14.57
2023-02-24T12:00:21.268Z,15.80
2023-02-24T12:03:03.852Z,17.08
2023-02-24T12:05:39.273Z,14.73
2023-02-24T12:08:10.555Z,12.47
2023-02-24T12:10:52.665Z,13.65
2023-02-24T12:13:41.645Z,16.17
2023-02-24T12:16:36.175Z,15.50
2023-02-24T12:19:20.308Z,15.90
2023-02-24T12:22:13.416Z,19.88
2023-02-24T12:24:48.105Z,26.33
2023-02-24T12:27:36.801Z,20.52
2023-02-24T12:30:49.132Z,24.25
2023-02-24T12:33:33.831Z,30.45
2023-02-24T12:36:30.998Z,27.98
2023-02-24T12:39:11.270Z,32.35
2023-02-24T12:41:42.783Z,21.67
2023-02-24T12:44:47.168Z,21.73
2023-02-24T12:47:44.120Z,28.65
2023-02-24T12:50:31.737Z,21.15
2023-02-24T12:53:09.619Z,23.55
2023-02-24T12:55:58.232Z,19.63
2023-02-24T12:58:34.743Z,17.33
2023-02-24T13:06:24.486Z,26.02
2023-02-24T13:08:55.301Z,22.98
2023-02-24T13:11:38.003Z,20.83
2023-02-24T13:14:25.362Z,26.00
2023-02-24T13:17:22.074Z,28.35
2023-02-24T13:19:52.420Z,23.02
2023-02-24T13:22:31.880Z,18.90
2023-02-24T13:25:08.985Z,19.38
2023-02-24T13:27:39.080Z,36.50
2023-02-24T13:30:24.807Z,29.65
2023-02-24T13:33:07.473Z,31.17
2023-02-24T13:35:36.625Z,20.95
2023-02-24T13:38:26.931Z,28.77
2023-02-24T13:41:05.580Z,22.48
2023-02-24T13:43:34.674Z,19.63
2023-02-24T13:46:04.788Z,14.27
2023-02-24T13:48:50.349Z,15.65
2023-02-24T13:51:37.056Z,23.17
2023-02-24T13:57:22.749Z,16.45
2023-02-24T14:00:12.949Z,26.35
2023-02-24T14:02:44.234Z,21.98
2023-02-24T14:05:28.487Z,16.33
2023-02-24T14:07:57.309Z,20.50
2023-02-24T14:10:28.858Z,18.88
2023-02-24T14:13:21.612Z,20.10
2023-02-24T14:15:51.744Z,35.78
2023-02-24T14:18:25.037Z,31.55
2023-02-24T14:20:54.653Z,34.05
2023-02-24T14:23:32.232Z,25.70
2023-02-24T14:26:18.679Z,21.67
2023-02-24T14:28:47.679Z,22.55
2023-02-24T14:31:18.031Z,22.10
2023-02-24T14:33:46.123Z,13.70
2023-02-24T14:36:19.195Z,21.33
2023-02-24T14:39:07.712Z,17.25
2023-02-24T14:41:36.222Z,18.23
2023-02-24T14:44:22.541Z,14.55
2023-02-24T14:46:58.791Z,18.52
2023-02-24T14:49:34.057Z,16.67
2023-02-24T14:52:07.692Z,15.50
2023-02-24T14:54:45.967Z,16.42
2023-02-24T14:59:52.800Z,17.23
2023-02-24T15:02:25.091Z,11.93
2023-02-24T15:05:00.533Z,18.20
2023-02-24T15:07:31.273Z,16.17
2023-02-24T15:09:59.368Z,15.10
2023-02-24T15:12:35.608Z,16.63
2023-02-24T15:15:24.444Z,17.83
2023-02-24T15:18:04.463Z,17.10
2023-02-24T15:20:38.463Z,23.10
2023-02-24T15:23:30.929Z,14.60
2023-02-24T15:26:01.760Z,16.77
2023-02-24T15:28:31.464Z,18.42
2023-02-24T15:31:15.979Z,14.35
2023-02-24T15:33:54.507Z,19.38
2023-02-24T15:36:25.722Z,15.40
2023-02-24T15:39:01.732Z,16.13
2023-02-24T15:41:43.802Z,16.48
2023-02-24T15:44:33.392Z,15.77
2023-02-24T15:47:29.811Z,15.95
2023-02-24T15:49:59.860Z,14.27
2023-02-24T15:52:28.721Z,15.80
2023-02-24T15:54:58.132Z,21.90
2023-02-24T15:57:26.299Z,15.75
2023-02-24T15:59:54.323Z,25.15
2023-02-24T16:02:23.503Z,21.52
2023-02-24T16:04:52.451Z,20.17
2023-02-24T16:07:35.084Z,16.17
2023-02-24T16:10:15.927Z,19.67
2023-02-24T16:12:53.819Z,23.52
2023-02-24T16:15:31.667Z,20.45
2023-02-24T16:18:02.852Z,23.70
2023-02-24T16:20:40.777Z,21.27
2023-02-24T16:23:10.882Z,18.48
2023-02-24T16:25:41.423Z,20.70
2023-02-24T16:28:19.347Z,20.65
2023-02-24T16:30:48.868Z,20.55
2023-02-24T16:33:18.818Z,21.27
2023-02-24T16:35:51.328Z,36.47
2023-02-24T16:38:40.779Z,27.85
2023-02-24T16:41:14.619Z,21.40
2023-02-24T16:43:43.276Z,17.10
2023-02-24T16:46:17.649Z,16.50
2023-02-24T16:48:55.441Z,19.60
2023-02-24T16:51:25.424Z,17.13
2023-02-24T16:53:54.840Z,19.63
2023-02-24T16:56:24.372Z,17.80
2023-02-24T16:58:56.283Z,20.05
2023-02-24T17:01:36.477Z,21.73
2023-02-24T17:04:17.316Z,16.70
2023-02-24T17:06:46.781Z,18.27
2023-02-24T17:09:15.774Z,16.00
2023-02-24T17:11:44.542Z,18.92
2023-02-24T17:14:18.317Z,18.80
2023-02-24T17:16:47.511Z,14.82
2023-02-24T17:19:18.113Z,14.75
2023-02-24T17:22:11.820Z,18.45
2023-02-24T17:24:47.836Z,17.95
2023-02-24T17:27:16.007Z,18.55
2023-02-24T17:29:44.635Z,22.67
2023-02-24T17:32:13.335Z,15.63
2023-02-24T17:34:42.373Z,14.90
2023-02-24T17:37:11.134Z,16.63
2023-02-24T17:39:40.426Z,17.98
2023-02-24T17:42:09.509Z,15.52
2023-02-24T17:44:38.784Z,18.30
2023-02-24T17:47:09.113Z,18.08
2023-02-24T17:49:40.656Z,17.95
2023-02-24T17:52:11.698Z,12.70
2023-02-24T17:54:43.047Z,14.15
2023-02-24T17:57:12.813Z,16.02
2023-02-24T17:59:43.194Z,11.43
2023-02-24T18:02:15.935Z,21.42
2023-02-24T18:04:44.479Z,16.45
2023-02-24T18:07:12.861Z,20.02
2023-02-24T18:09:44.409Z,15.43
2023-02-24T18:12:18.755Z,13.88
2023-02-24T18:14:56.123Z,14.65
2023-02-24T18:17:32.537Z,13.43
2023-02-24T18:20:00.618Z,13.98
2023-02-24T18:22:29.056Z,15.60
2023-02-24T18:24:57.732Z,13.70
2023-02-24T18:27:25.929Z,14.48
2023-02-24T18:29:59.530Z,17.60
2023-02-24T18:32:29.477Z,15.85
2023-02-24T18:34:58.123Z,15.57
2023-02-24T18:37:26.248Z,12.95
2023-02-24T18:39:54.932Z,16.90
2023-02-24T18:42:24.387Z,15.57
2023-02-24T18:44:52.283Z,13.65
2023-02-24T18:47:21.601Z,14.77
2023-02-24T18:49:50.738Z,15.80
2023-02-24T18:52:19.224Z,12.85
2023-02-24T18:54:48.633Z,17.55
2023-02-24T18:57:16.913Z,15.23
2023-02-24T18:59:51.286Z,14.27
2023-02-24T19:02:22.544Z,14.85
2023-02-24T19:04:51.508Z,14.75
2023-02-24T19:07:19.713Z,9.88
2023-02-24T19:09:48.730Z,13.93
2023-02-24T19:12:17.678Z,13.73
2023-02-24T19:14:51.735Z,15.65
2023-02-24T19:17:24.417Z,14.45
2023-02-24T19:19:54.616Z,21.75
2023-02-24T19:22:24.176Z,19.80
2023-02-24T19:24:53.365Z,21.08
2023-02-24T19:27:21.833Z,18.20
2023-02-24T19:29:56.910Z,19.10
2023-02-24T19:32:28.525Z,23.20
2023-02-24T19:35:07.014Z,23.80
2023-02-24T19:37:35.410Z,19.90
2023-02-24T19:40:06.336Z,24.40
2023-02-24T19:42:41.552Z,26.25
2023-02-24T19:45:10.175Z,22.23
2023-02-24T19:47:42.845Z,21.63
2023-02-24T19:50:15.428Z,23.30
2023-02-24T19:52:43.495Z,21.40
2023-02-24T19:55:11.924Z,21.30
2023-02-24T19:57:44.753Z,22.98
2023-02-24T20:00:13.498Z,23.48
2023-02-24T20:02:41.710Z,25.00
2023-02-24T20:05:10.558Z,24.60
2023-02-24T20:07:39.050Z,22.05
2023-02-24T20:10:16.032Z,29.35
2023-02-24T20:12:45.043Z,27.02
2023-02-24T20:15:16.158Z,28.88
2023-02-24T20:20:22.482Z,25.83
2023-02-24T20:22:57.818Z,21.52
2023-02-24T20:25:30.391Z,27.45
2023-02-24T20:28:11.708Z,33.72
2023-02-24T20:30:49.697Z,36.10
2023-02-24T20:33:22.859Z,34.17
2023-02-24T20:35:51.493Z,29.17
2023-02-24T20:38:20.567Z,40.40
2023-02-24T20:41:00.535Z,38.60
2023-02-24T20:43:33.509Z,28.65
2023-02-24T20:46:24.572Z,25.20
2023-02-24T20:49:00.104Z,27.40
2023-02-24T20:51:34.058Z,27.75
2023-02-24T20:54:02.091Z,26.65
2023-02-24T20:56:34.274Z,26.33
2023-02-24T20:59:08.332Z,26.58
2023-02-24T21:01:39.224Z,30.20
2023-02-24T21:04:08.966Z,24.27
2023-02-24T21:06:38.804Z,22.52
2023-02-24T21:09:12.932Z,26.25
2023-02-24T21:11:41.347Z,22.30
2023-02-24T21:14:14.513Z,25.48
2023-02-24T21:16:43.698Z,28.65
2023-02-24T21:19:12.806Z,25.17
2023-02-24T21:21:40.974Z,32.70
2023-02-24T21:24:10.232Z,25.23
2023-02-24T21:26:39.044Z,24.05
2023-02-24T21:29:08.027Z,31.70
2023-02-24T21:31:36.411Z,24.75
2023-02-24T21:34:05.095Z,29.77
2023-02-24T21:36:33.532Z,29.60
2023-02-24T21:39:02.285Z,25.05
2023-02-24T21:41:30.727Z,26.92
2023-02-24T21:44:00.891Z,29.90
2023-02-24T21:46:30.769Z,31.02
2023-02-24T21:49:07.135Z,30.65
2023-02-24T21:51:36.636Z,61.08
2023-02-24T21:54:08.913Z,31.27
2023-02-24T21:56:38.007Z,30.45
2023-02-24T21:59:07.212Z,29.13
2023-02-24T22:01:43.190Z,30.10
2023-02-24T22:04:14.931Z,31.70
2023-02-24T22:06:51.854Z,25.90
2023-02-24T22:09:20.492Z,31.05
2023-02-24T22:11:49.645Z,33.78
2023-02-24T22:14:19.814Z,27.27
2023-02-24T22:16:49.283Z,33.72
2023-02-24T22:19:20.386Z,30.65
2023-02-24T22:21:48.973Z,30.95
2023-02-24T22:24:20.318Z,36.78
2023-02-24T22:26:51.357Z,27.05
2023-02-24T22:29:20.689Z,29.40
2023-02-24T22:31:49.784Z,31.25
2023-02-24T22:34:18.533Z,29.23
2023-02-24T22:36:46.647Z,28.60
2023-02-24T22:39:23.388Z,25.83
2023-02-24T22:41:52.310Z,31.27
2023-02-24T22:44:21.828Z,27.13
2023-02-24T22:46:50.036Z,27.73
2023-02-24T22:49:19.727Z,33.75
2023-02-24T22:51:47.716Z,29.70
2023-02-24T22:54:17.038Z,25.95
2023-02-24T22:56:46.053Z,24.67
2023-02-24T22:59:19.092Z,24.90
2023-02-24T23:01:49.265Z,31.08
2023-02-24T23:04:18.285Z,26.65
2023-02-24T23:06:49.158Z,26.70
2023-02-24T23:09:20.560Z,29.30
2023-02-24T23:11:48.716Z,27.27
2023-02-24T23:14:17.191Z,24.48
2023-02-24T23:16:56.040Z,26.85
2023-02-24T23:19:24.617Z,28.05
2023-02-24T23:21:53.407Z,30.40
2023-02-24T23:24:25.901Z,33.50
2023-02-24T23:26:57.710Z,27.38
2023-02-24T23:29:27.789Z,24.27
2023-02-24T23:31:56.305Z,27.42
2023-02-24T23:34:24.932Z,25.30
2023-02-24T23:36:52.989Z,27.65
2023-02-24T23:39:24.114Z,32.25
2023-02-24T23:41:56.941Z,31.00
2023-02-24T23:44:31.953Z,33.47
2023-02-24T23:47:33.692Z,27.75
2023-02-24T23:50:01.650Z,26.17
2023-02-24T23:52:29.885Z,30.25
2023-02-24T23:54:58.625Z,30.98
2023-02-24T23:57:27.534Z,36.13
2023-02-24T23:59:59.170Z,30.23
